createdAt,value
2023-03-20T00:02:00.396Z,87.78
2023-03-20T00:04:27.137Z,87.37
2023-03-20T00:06:53.738Z,87.68
2023-03-20T00:09:20.420Z,87.41
2023-03-20T00:11:51.377Z,87.98
2023-03-20T00:14:20.234Z,87.68
2023-03-20T00:16:48.883Z,88.09
2023-03-20T00:19:18.656Z,86.95
2023-03-20T00:21:47.611Z,86.93
2023-03-20T00:24:15.881Z,87.46
2023-03-20T00:26:44.155Z,87.18
2023-03-20T00:29:30.872Z,87.77
2023-03-20T00:31:58.429Z,87.91
2023-03-20T00:34:29.024Z,88.51
2023-03-20T00:36:56.417Z,88.25
2023-03-20T00:39:23.790Z,87.89
2023-03-20T00:41:54.418Z,88.24
2023-03-20T00:44:35.696Z,88.80
2023-03-20T00:47:13.524Z,88.32
2023-03-20T00:49:40.394Z,88.43
2023-03-20T00:52:09.053Z,88.97
2023-03-20T00:54:36.251Z,89.01
2023-03-20T00:57:06.916Z,88.80
2023-03-20T00:59:37.528Z,88.39
2023-03-20T01:02:05.109Z,88.51
2023-03-20T01:04:36.411Z,88.24
2023-03-20T01:07:03.479Z,87.94
2023-03-20T01:09:30.092Z,87.72
2023-03-20T01:11:56.937Z,87.69
2023-03-20T01:14:23.953Z,87.85
2023-03-20T01:16:50.699Z,87.89
2023-03-20T01:19:17.808Z,87.89
2023-03-20T01:21:44.585Z,87.52
2023-03-20T01:24:11.261Z,87.68
2023-03-20T01:26:43.239Z,87.73
2023-03-20T01:29:24.627Z,87.33
2023-03-20T01:31:52.777Z,87.60
2023-03-20T01:34:21.018Z,87.96
2023-03-20T01:36:57.162Z,87.68
2023-03-20T01:39:31.852Z,87.20
2023-03-20T01:41:59.511Z,87.42
2023-03-20T01:44:34.170Z,87.24
2023-03-20T01:47:03.382Z,87.70
2023-03-20T01:49:57.448Z,87.27
2023-03-20T01:52:24.171Z,87.43
2023-03-20T01:54:50.899Z,86.92
2023-03-20T01:57:24.610Z,87.05
2023-03-20T02:00:01.696Z,87.04
2023-03-20T02:02:31.447Z,86.81
2023-03-20T02:05:06.320Z,87.54
2023-03-20T02:07:35.796Z,87.73
2023-03-20T02:10:05.773Z,87.67
2023-03-20T02:12:34.733Z,87.51
2023-03-20T02:15:01.705Z,88.13
2023-03-20T02:17:28.594Z,87.42
2023-03-20T02:20:26.151Z,87.40
2023-03-20T02:23:31.201Z,86.93
2023-03-20T02:26:24.237Z,87.54
2023-03-20T02:29:20.128Z,87.75
2023-03-20T02:32:29.849Z,87.32
2023-03-20T02:35:48.368Z,87.77
2023-03-20T02:38:58.453Z,87.61
2023-03-20T02:41:43.805Z,87.96
2023-03-20T02:44:27.832Z,88.32
2023-03-20T02:47:10.330Z,88.76
2023-03-20T02:50:06.358Z,88.00
2023-03-20T02:53:18.074Z,88.42
2023-03-20T02:56:25.127Z,89.56
2023-03-20T02:59:02.657Z,89.77
2023-03-20T03:01:39.686Z,89.11
2023-03-20T03:04:14.352Z,88.35
2023-03-20T03:06:46.068Z,88.72
2023-03-20T03:09:35.878Z,89.27
2023-03-20T03:12:07.985Z,90.66
2023-03-20T03:14:43.757Z,91.05
2023-03-20T03:17:13.403Z,90.91
2023-03-20T03:19:46.393Z,90.94
2023-03-20T03:22:13.009Z,91.00
2023-03-20T03:24:45.281Z,91.08
2023-03-20T03:27:37.756Z,90.56
2023-03-20T03:30:18.539Z,89.82
2023-03-20T03:32:49.574Z,89.71
2023-03-20T03:35:22.023Z,89.31
2023-03-20T03:38:19.192Z,89.24
2023-03-20T03:41:31.260Z,88.92
2023-03-20T03:44:23.117Z,89.28
2023-03-20T03:46:57.790Z,89.46
2023-03-20T03:49:29.226Z,89.70
2023-03-20T03:52:01.339Z,89.90
2023-03-20T03:54:36.768Z,89.59
2023-03-20T03:57:05.970Z,89.62
2023-03-20T03:59:42.376Z,89.99
2023-03-20T04:02:10.583Z,89.32
2023-03-20T04:04:42.638Z,90.05
2023-03-20T04:07:09.315Z,89.95
2023-03-20T04:09:35.995Z,89.96
2023-03-20T04:12:02.884Z,89.78
2023-03-20T04:14:29.511Z,90.71
2023-03-20T04:16:56.170Z,90.94
2023-03-20T04:19:22.796Z,91.06
2023-03-20T04:21:49.451Z,91.35
2023-03-20T04:24:16.336Z,91.41
2023-03-20T04:26:43.265Z,91.79
2023-03-20T04:29:10.407Z,91.34
2023-03-20T04:31:37.123Z,91.62
2023-03-20T04:34:03.842Z,91.33
2023-03-20T04:36:30.434Z,91.40
2023-03-20T04:38:57.754Z,91.46
2023-03-20T04:41:24.439Z,91.03
2023-03-20T04:43:51.061Z,90.62
2023-03-20T04:46:17.797Z,92.01
2023-03-20T04:48:44.416Z,91.80
2023-03-20T04:51:11.332Z,91.87
2023-03-20T04:53:38.482Z,91.25
2023-03-20T04:56:05.751Z,91.24
2023-03-20T04:58:32.416Z,91.17
2023-03-20T05:00:59.072Z,91.76
2023-03-20T05:03:27.575Z,92.04
2023-03-20T05:05:54.217Z,91.71
2023-03-20T05:08:21.136Z,91.87
2023-03-20T05:10:47.792Z,91.80
2023-03-20T05:13:14.429Z,91.56
2023-03-20T05:15:41.087Z,92.21
2023-03-20T05:18:08.204Z,92.06
2023-03-20T05:20:34.839Z,92.35
2023-03-20T05:23:01.467Z,92.31
2023-03-20T05:25:28.149Z,92.40
2023-03-20T05:27:55.018Z,91.69
2023-03-20T05:30:21.688Z,91.84
2023-03-20T05:32:52.743Z,91.58
2023-03-20T05:35:19.981Z,92.15
2023-03-20T05:37:46.647Z,92.03
2023-03-20T05:40:15.931Z,91.94
2023-03-20T05:42:42.575Z,91.96
2023-03-20T05:45:09.798Z,92.79
2023-03-20T05:47:36.422Z,92.19
2023-03-20T05:50:04.354Z,92.07
2023-03-20T05:52:31.180Z,91.40
2023-03-20T05:54:57.830Z,91.40
2023-03-20T05:57:24.592Z,91.33
2023-03-20T05:59:51.386Z,91.08
2023-03-20T06:02:18.077Z,91.33
2023-03-20T06:04:44.784Z,91.17
2023-03-20T06:07:12.864Z,91.35
2023-03-20T06:09:39.521Z,91.09
2023-03-20T06:12:06.817Z,91.80
2023-03-20T06:14:33.525Z,91.27
2023-03-20T06:17:00.855Z,91.30
2023-03-20T06:19:27.520Z,91.05
2023-03-20T06:21:54.213Z,91.11
2023-03-20T06:24:20.984Z,90.47
2023-03-20T06:26:47.625Z,90.49
2023-03-20T06:29:14.469Z,90.54
2023-03-20T06:31:42.431Z,90.33
2023-03-20T06:34:09.083Z,90.54
2023-03-20T06:36:35.808Z,90.90
2023-03-20T06:39:03.412Z,90.77
2023-03-20T06:41:34.522Z,90.25
2023-03-20T06:44:02.579Z,90.76
2023-03-20T06:46:29.231Z,90.57
2023-03-20T06:48:55.940Z,90.96
2023-03-20T06:51:22.764Z,91.20
2023-03-20T06:53:49.426Z,90.24
2023-03-20T06:56:16.903Z,89.46
2023-03-20T06:58:43.623Z,89.77
2023-03-20T07:01:15.845Z,89.03
2023-03-20T07:03:42.761Z,89.16
2023-03-20T07:06:09.785Z,88.91
2023-03-20T07:08:36.884Z,89.01
2023-03-20T07:11:04.311Z,89.49
2023-03-20T07:13:32.620Z,89.43
2023-03-20T07:16:04.983Z,89.34
2023-03-20T07:18:32.429Z,89.28
2023-03-20T07:21:05.225Z,89.32
2023-03-20T07:23:34.421Z,88.98
2023-03-20T07:26:01.241Z,89.07
2023-03-20T07:28:27.999Z,88.35
2023-03-20T07:30:55.696Z,88.32
2023-03-20T07:33:22.363Z,88.51
2023-03-20T07:35:53.803Z,88.07
2023-03-20T07:38:21.399Z,86.96
2023-03-20T07:40:49.006Z,87.13
2023-03-20T07:43:16.720Z,86.96
2023-03-20T07:45:43.680Z,86.43
2023-03-20T07:48:10.513Z,86.27
2023-03-20T07:50:37.282Z,84.95
2023-03-20T07:53:03.917Z,85.45
2023-03-20T07:55:30.692Z,85.40
2023-03-20T07:57:57.336Z,85.31
2023-03-20T08:00:25.578Z,85.47
2023-03-20T08:02:53.525Z,85.81
2023-03-20T08:05:20.467Z,85.50
2023-03-20T08:07:47.125Z,85.80
2023-03-20T08:10:14.112Z,86.28
2023-03-20T08:12:40.752Z,85.74
2023-03-20T08:15:08.297Z,86.04
2023-03-20T08:17:34.960Z,85.75
2023-03-20T08:20:01.810Z,86.19
2023-03-20T08:22:28.460Z,85.53
2023-03-20T08:24:55.133Z,84.94
2023-03-20T08:27:21.862Z,84.27
2023-03-20T08:29:48.536Z,84.11
2023-03-20T08:32:15.188Z,84.67
2023-03-20T08:34:41.957Z,85.11
2023-03-20T08:37:08.595Z,84.71
2023-03-20T08:39:35.860Z,85.01
2023-03-20T08:42:02.510Z,84.12
2023-03-20T08:44:29.276Z,83.60
2023-03-20T08:46:56.539Z,83.62
2023-03-20T08:49:23.245Z,83.93
2023-03-20T08:51:49.962Z,84.25
2023-03-20T08:54:18.582Z,84.58
2023-03-20T08:56:46.076Z,84.29
2023-03-20T08:59:12.868Z,83.86
2023-03-20T09:01:49.397Z,83.59
2023-03-20T09:04:17.138Z,83.14
2023-03-20T09:06:43.856Z,82.66
2023-03-20T09:09:10.674Z,82.31
2023-03-20T09:11:37.592Z,81.74
2023-03-20T09:14:04.210Z,81.15
2023-03-20T09:16:31.032Z,81.49
2023-03-20T09:18:57.791Z,81.81
2023-03-20T09:21:24.455Z,80.34
2023-03-20T09:23:51.068Z,79.67
2023-03-20T09:26:17.828Z,79.43
2023-03-20T09:28:44.449Z,78.40
2023-03-20T09:31:12.072Z,79.14
2023-03-20T09:33:38.930Z,79.13
2023-03-20T09:36:07.905Z,78.95
2023-03-20T09:38:34.625Z,78.25
2023-03-20T09:41:02.930Z,77.25
2023-03-20T09:43:55.091Z,75.90
2023-03-20T09:47:19.753Z,75.41
2023-03-20T09:50:35.425Z,76.48
2023-03-20T09:53:13.561Z,76.96
2023-03-20T09:55:42.973Z,77.35
2023-03-20T09:58:14.107Z,77.78
2023-03-20T10:00:44.210Z,77.38
2023-03-20T10:03:42.148Z,77.55
2023-03-20T10:06:16.920Z,77.69
2023-03-20T10:08:44.110Z,77.93
2023-03-20T10:15:09.049Z,77.97
2023-03-20T10:21:05.608Z,78.26
2023-03-20T10:23:41.138Z,77.63
2023-03-20T10:26:17.939Z,78.46
2023-03-20T10:29:07.983Z,78.79
2023-03-20T10:32:04.570Z,77.96
2023-03-20T10:35:17.723Z,77.15
2023-03-20T10:43:57.191Z,77.40
2023-03-20T10:46:29.700Z,76.95
2023-03-20T10:49:01.859Z,76.82
2023-03-20T10:51:46.380Z,76.91
2023-03-20T10:54:24.082Z,76.95
2023-03-20T10:56:55.879Z,76.36
2023-03-20T10:59:27.582Z,76.42
2023-03-20T11:01:54.815Z,75.71
2023-03-20T11:04:21.762Z,75.60
2023-03-20T11:07:15.238Z,75.99
2023-03-20T11:09:41.814Z,75.50
2023-03-20T11:12:18.056Z,75.25
2023-03-20T11:14:44.741Z,74.85
2023-03-20T11:17:12.260Z,75.32
2023-03-20T11:19:41.675Z,75.29
2023-03-20T11:22:26.326Z,74.71
2023-03-20T11:24:56.326Z,73.69
2023-03-20T11:27:31.530Z,73.85
2023-03-20T11:30:00.239Z,74.06
2023-03-20T11:32:47.615Z,73.38
2023-03-20T11:35:44.889Z,72.47
2023-03-20T11:38:21.140Z,71.34
2023-03-20T11:40:49.448Z,72.06
2023-03-20T11:43:24.741Z,71.92
2023-03-20T11:45:57.002Z,71.35
2023-03-20T11:48:37.304Z,71.71
2023-03-20T11:51:12.367Z,71.66
2023-03-20T11:53:41.882Z,71.58
2023-03-20T11:56:20.749Z,71.86
2023-03-20T11:59:24.106Z,72.18
2023-03-20T12:01:53.724Z,73.54
2023-03-20T12:04:27.799Z,73.58
2023-03-20T12:07:00.999Z,73.18
2023-03-20T12:09:58.223Z,71.34
2023-03-20T12:12:41.177Z,72.52
2023-03-20T12:15:37.058Z,72.17
2023-03-20T12:18:15.648Z,71.19
2023-03-20T12:20:54.694Z,72.38
2023-03-20T12:24:01.301Z,71.65
2023-03-20T12:26:45.234Z,70.43
2023-03-20T12:29:38.149Z,70.06
2023-03-20T12:32:14.789Z,70.73
2023-03-20T12:34:46.956Z,70.70
2023-03-20T12:37:18.216Z,70.49
2023-03-20T12:39:53.582Z,70.87
2023-03-20T12:43:02.208Z,71.25
2023-03-20T12:45:38.118Z,70.86
2023-03-20T12:48:18.320Z,69.33
2023-03-20T12:51:00.473Z,69.95
2023-03-20T12:53:43.526Z,70.61
2023-03-20T12:56:56.532Z,70.83
2023-03-20T13:00:16.505Z,71.56
2023-03-20T13:03:01.772Z,72.77
2023-03-20T13:06:06.823Z,69.92
2023-03-20T13:09:08.706Z,69.90
2023-03-20T13:12:08.198Z,69.85
2023-03-20T13:15:24.229Z,68.31
2023-03-20T13:18:30.195Z,69.12
2023-03-20T13:21:00.751Z,69.59
2023-03-20T13:23:46.448Z,69.66
2023-03-20T13:26:49.278Z,69.34
2023-03-20T13:29:47.171Z,70.34
2023-03-20T13:32:27.444Z,70.33
2023-03-20T13:35:34.745Z,69.81
2023-03-20T13:38:09.749Z,70.36
2023-03-20T13:40:43.982Z,70.48
2023-03-20T13:43:19.086Z,71.24
2023-03-20T13:45:46.421Z,71.58
2023-03-20T13:48:45.589Z,71.71
2023-03-20T13:51:38.686Z,72.01
2023-03-20T13:54:23.644Z,71.73
2023-03-20T13:57:28.850Z,71.91
2023-03-20T14:00:21.760Z,72.08
2023-03-20T14:03:11.476Z,72.83
2023-03-20T14:05:41.062Z,72.45
2023-03-20T14:08:33.795Z,72.10
2023-03-20T14:11:35.279Z,71.06
2023-03-20T14:14:27.617Z,71.75
2023-03-20T14:17:22.439Z,71.31
2023-03-20T14:19:50.798Z,72.30
2023-03-20T14:22:30.459Z,71.99
2023-03-20T14:25:00.319Z,72.17
2023-03-20T14:27:43.455Z,71.31
2023-03-20T14:30:32.352Z,71.42
2023-03-20T14:33:26.898Z,70.15
2023-03-20T14:36:45.006Z,71.21
2023-03-20T14:39:53.005Z,70.84
2023-03-20T14:42:57.185Z,69.66
2023-03-20T14:45:38.000Z,69.54
2023-03-20T14:48:17.739Z,68.43
2023-03-20T14:51:03.042Z,68.77
2023-03-20T14:53:32.825Z,68.34
2023-03-20T14:56:08.137Z,67.84
2023-03-20T14:59:00.293Z,66.38
2023-03-20T15:02:12.943Z,66.67
2023-03-20T15:04:42.121Z,67.14
2023-03-20T15:07:20.704Z,66.95
2023-03-20T15:09:51.014Z,66.92
2023-03-20T15:12:23.566Z,68.65
2023-03-20T15:14:58.304Z,69.37
2023-03-20T15:17:36.379Z,69.79
2023-03-20T15:20:29.378Z,69.58
2023-03-20T15:23:01.038Z,69.47
2023-03-20T15:25:39.809Z,69.12
2023-03-20T15:28:07.987Z,68.98
2023-03-20T15:30:38.968Z,68.68
2023-03-20T15:33:08.252Z,69.15
2023-03-20T15:35:35.018Z,68.83
2023-03-20T15:38:07.528Z,68.87
2023-03-20T15:40:50.568Z,69.03
2023-03-20T15:43:20.073Z,69.52
2023-03-20T15:45:46.861Z,69.09
2023-03-20T15:48:18.895Z,69.21
2023-03-20T15:50:54.850Z,70.14
2023-03-20T15:53:29.170Z,69.00
2023-03-20T15:56:19.241Z,68.72
2023-03-20T15:58:49.513Z,68.25
2023-03-20T16:01:19.248Z,68.79
2023-03-20T16:03:46.439Z,69.53
2023-03-20T16:06:16.521Z,69.89
2023-03-20T16:08:45.700Z,69.58
2023-03-20T16:11:15.513Z,70.71
2023-03-20T16:13:47.102Z,70.73
2023-03-20T16:16:17.538Z,71.61
2023-03-20T16:18:48.306Z,71.96
2023-03-20T16:21:54.544Z,72.04
2023-03-20T16:24:28.139Z,72.86
2023-03-20T16:26:55.518Z,73.39
2023-03-20T16:29:24.276Z,72.63
2023-03-20T16:31:58.573Z,72.29
2023-03-20T16:34:33.560Z,72.34
2023-03-20T16:37:06.035Z,72.17
2023-03-20T16:39:32.593Z,71.72
2023-03-20T16:42:20.607Z,71.62
2023-03-20T16:44:47.424Z,72.08
2023-03-20T16:47:32.990Z,72.25
2023-03-20T16:50:30.699Z,72.81
2023-03-20T16:52:59.535Z,72.89
2023-03-20T16:55:32.006Z,73.04
2023-03-20T16:58:00.635Z,73.61
2023-03-20T17:00:33.061Z,73.99
2023-03-20T17:03:15.234Z,74.38
2023-03-20T17:05:53.577Z,74.33
2023-03-20T17:08:29.936Z,75.02
2023-03-20T17:10:59.944Z,75.31
2023-03-20T17:13:26.805Z,75.43
2023-03-20T17:15:54.480Z,75.77
2023-03-20T17:18:21.180Z,75.99
2023-03-20T17:20:47.826Z,76.26
2023-03-20T17:23:19.369Z,76.08
2023-03-20T17:25:46.246Z,76.80
2023-03-20T17:28:20.530Z,76.97
2023-03-20T17:30:49.135Z,76.88
2023-03-20T17:33:17.183Z,76.48
2023-03-20T17:35:44.066Z,76.67
2023-03-20T17:38:16.978Z,76.54
2023-03-20T17:40:44.743Z,76.55
2023-03-20T17:43:13.107Z,76.82
2023-03-20T17:45:40.797Z,76.56
2023-03-20T17:48:15.685Z,76.58
2023-03-20T17:50:44.578Z,76.76
2023-03-20T17:53:16.721Z,76.72
2023-03-20T17:55:43.497Z,76.93
2023-03-20T17:58:15.016Z,76.87
2023-03-20T18:00:41.717Z,77.30
2023-03-20T18:03:08.347Z,77.26
2023-03-20T18:05:39.373Z,77.21
2023-03-20T18:08:12.587Z,77.17
2023-03-20T18:10:39.484Z,77.25
2023-03-20T18:13:06.323Z,77.89
2023-03-20T18:15:32.978Z,78.06
2023-03-20T18:17:59.572Z,77.58
2023-03-20T18:20:32.194Z,77.85
2023-03-20T18:22:58.736Z,77.62
2023-03-20T18:25:26.056Z,77.83
2023-03-20T18:27:53.553Z,77.94
2023-03-20T18:30:23.342Z,78.44
2023-03-20T18:32:50.485Z,78.56
2023-03-20T18:35:17.664Z,78.94
2023-03-20T18:37:44.606Z,79.02
2023-03-20T18:40:21.613Z,79.16
2023-03-20T18:42:48.399Z,79.18
2023-03-20T18:45:15.335Z,78.94
2023-03-20T18:47:41.943Z,79.29
2023-03-20T18:50:29.247Z,79.05
2023-03-20T18:52:57.266Z,79.49
2023-03-20T18:55:26.164Z,79.27
2023-03-20T18:57:53.040Z,79.59
2023-03-20T19:00:21.309Z,79.52
2023-03-20T19:02:49.667Z,79.57
2023-03-20T19:05:18.218Z,79.87
2023-03-20T19:07:48.466Z,80.32
2023-03-20T19:10:43.866Z,80.34
2023-03-20T19:13:15.909Z,80.60
2023-03-20T19:15:43.601Z,81.13
2023-03-20T19:18:27.075Z,81.46
2023-03-20T19:20:56.063Z,81.80
2023-03-20T19:23:24.927Z,82.07
2023-03-20T19:25:57.444Z,82.21
2023-03-20T19:28:39.194Z,82.12
2023-03-20T19:31:08.279Z,82.03
2023-03-20T19:33:35.450Z,81.89
2023-03-20T19:36:04.324Z,83.10
2023-03-20T19:38:32.139Z,83.49
2023-03-20T19:40:59.814Z,84.17
2023-03-20T19:43:28.805Z,83.54
2023-03-20T19:45:58.752Z,83.60
2023-03-20T19:48:50.448Z,84.19
2023-03-20T19:51:26.412Z,84.21
2023-03-20T19:53:54.067Z,84.69
2023-03-20T19:56:23.083Z,84.20
2023-03-20T19:58:50.746Z,84.05
2023-03-20T20:01:23.309Z,84.74
2023-03-20T20:03:51.096Z,83.94
2023-03-20T20:06:20.153Z,84.45
2023-03-20T20:08:49.583Z,84.37
2023-03-20T20:11:20.962Z,84.28
2023-03-20T20:16:35.944Z,84.34
2023-03-20T20:19:02.792Z,85.01
2023-03-20T20:24:18.816Z,85.14
2023-03-20T20:27:03.406Z,85.19
2023-03-20T20:29:34.135Z,85.41
2023-03-20T20:32:00.936Z,85.71
2023-03-20T20:40:02.006Z,86.15
2023-03-20T20:42:28.646Z,85.88
2023-03-20T20:44:55.487Z,85.58
2023-03-20T20:47:22.193Z,86.15
2023-03-20T20:49:49.195Z,86.57
2023-03-20T20:52:16.120Z,86.65
2023-03-20T20:54:42.822Z,86.56
2023-03-20T20:57:10.899Z,86.32
2023-03-20T20:59:38.221Z,86.03
2023-03-20T21:02:12.040Z,86.77
2023-03-20T21:04:42.633Z,86.56
2023-03-20T21:07:13.455Z,86.85
2023-03-20T21:09:40.871Z,87.01
2023-03-20T21:12:10.415Z,86.20
2023-03-20T21:14:37.865Z,86.75
2023-03-20T21:17:06.035Z,86.61
2023-03-20T21:19:38.729Z,86.29
2023-03-20T21:22:05.779Z,86.69
2023-03-20T21:24:34.678Z,85.66
2023-03-20T21:27:08.074Z,85.61
2023-03-20T21:29:34.824Z,86.39
2023-03-20T21:32:01.657Z,85.67
2023-03-20T21:34:29.148Z,85.86
2023-03-20T21:36:57.428Z,86.50
2023-03-20T21:39:24.643Z,85.84
2023-03-20T21:41:51.306Z,85.59
2023-03-20T21:44:24.648Z,86.08
2023-03-20T21:50:42.146Z,86.35
2023-03-20T21:53:13.442Z,86.21
2023-03-20T22:01:39.628Z,86.41
2023-03-20T22:07:24.184Z,85.88
2023-03-20T22:15:34.095Z,86.72
2023-03-20T22:32:27.829Z,87.52
2023-03-20T22:35:15.782Z,87.98
2023-03-20T22:43:31.831Z,87.85
2023-03-20T22:45:38.411Z,87.36
2023-03-20T22:48:10.842Z,87.24
2023-03-20T22:50:38.871Z,87.72
2023-03-20T22:53:06.109Z,87.49
2023-03-20T22:55:32.797Z,87.78
2023-03-20T22:58:06.887Z,86.58
2023-03-20T23:00:35.747Z,87.26
2023-03-20T23:03:15.610Z,87.11
2023-03-20T23:05:47.240Z,86.26
2023-03-20T23:08:13.897Z,86.53
2023-03-20T23:10:45.950Z,85.93
2023-03-20T23:13:13.244Z,86.04
2023-03-20T23:15:39.893Z,86.41
2023-03-20T23:18:06.676Z,86.03
2023-03-20T23:20:33.503Z,86.33
2023-03-20T23:23:00.255Z,86.59
2023-03-20T23:25:38.321Z,86.48
2023-03-20T23:28:07.332Z,86.63
2023-03-20T23:30:44.257Z,86.30
2023-03-20T23:33:15.000Z,86.53
2023-03-20T23:35:41.714Z,86.32
2023-03-20T23:38:08.407Z,87.37
2023-03-20T23:40:35.610Z,87.78
2023-03-20T23:43:02.399Z,87.77
2023-03-20T23:45:29.000Z,87.96
2023-03-20T23:47:55.753Z,88.23
2023-03-20T23:50:42.612Z,87.72
2023-03-20T23:53:19.915Z,87.09
2023-03-20T23:55:49.880Z,86.53
2023-03-20T23:58:16.930Z,86.94
